sensor_id;sensor_type;location;lat;lon;timestamp;temperature;humidity
11446;DHT22;5779;64.178;15.432;2023-11-22T00:02:08;-4.10;99.90
11446;DHT22;5779;64.178;15.432;2023-11-22T00:04:55;-4.00;99.90
11446;DHT22;5779;64.178;15.432;2023-11-22T00:07:43;-3.90;99.90
11446;DHT22;5779;64.178;15.432;2023-11-22T00:10:30;-3.90;99.90
11446;DHT22;5779;64.178;15.432;2023-11-22T00:13:17;-3.80;99.90
11446;DHT22;5779;64.178;15.432;2023-11-22T00:16:05;-3.60;99.90
11446;DHT22;5779;64.178;15.432;2023-11-22T00:18:54;-3.50;99.90
11446;DHT22;5779;64.178;15.432;2023-11-22T00:21:40;-3.40;99.90
11446;DHT22;5779;64.178;15.432;2023-11-22T00:24:27;-3.40;99.90
11446;DHT22;5779;64.178;15.432;2023-11-22T00:27:15;-3.50;99.90
11446;DHT22;5779;64.178;15.432;2023-11-22T00:30:02;-3.50;99.90
11446;DHT22;5779;64.178;15.432;2023-11-22T00:32:51;-3.60;99.90
11446;DHT22;5779;64.178;15.432;2023-11-22T00:35:38;-3.60;99.90
11446;DHT22;5779;64.178;15.432;2023-11-22T00:38:25;-3.50;99.90
11446;DHT22;5779;64.178;15.432;2023-11-22T00:41:12;-3.70;99.90
11446;DHT22;5779;64.178;15.432;2023-11-22T00:43:59;-3.70;99.90
11446;DHT22;5779;64.178;15.432;2023-11-22T00:46:46;-3.60;99.90
11446;DHT22;5779;64.178;15.432;2023-11-22T00:49:34;-3.60;99.90
11446;DHT22;5779;64.178;15.432;2023-11-22T00:52:21;-3.80;99.90
11446;DHT22;5779;64.178;15.432;2023-11-22T00:55:08;-3.70;99.90
11446;DHT22;5779;64.178;15.432;2023-11-22T00:57:55;-3.60;99.90
11446;DHT22;5779;64.178;15.432;2023-11-22T01:00:48;-3.60;99.90
11446;DHT22;5779;64.178;15.432;2023-11-22T01:03:35;-3.50;99.90
11446;DHT22;5779;64.178;15.432;2023-11-22T01:06:24;-3.50;99.90
11446;DHT22;5779;64.178;15.432;2023-11-22T01:09:11;-3.50;99.90
11446;DHT22;5779;64.178;15.432;2023-11-22T01:11:58;-3.60;99.90
11446;DHT22;5779;64.178;15.432;2023-11-22T01:14:45;-3.40;99.90
11446;DHT22;5779;64.178;15.432;2023-11-22T01:17:32;-3.50;99.90
11446;DHT22;5779;64.178;15.432;2023-11-22T01:20:19;-3.40;99.90
11446;DHT22;5779;64.178;15.432;2023-11-22T01:23:09;-3.60;99.90
11446;DHT22;5779;64.178;15.432;2023-11-22T01:25:56;-3.60;99.90
11446;DHT22;5779;64.178;15.432;2023-11-22T01:28:43;-3.60;99.90
11446;DHT22;5779;64.178;15.432;2023-11-22T01:31:30;-3.50;99.90
11446;DHT22;5779;64.178;15.432;2023-11-22T01:34:17;-3.50;99.90
11446;DHT22;5779;64.178;15.432;2023-11-22T01:37:04;-3.40;99.90
11446;DHT22;5779;64.178;15.432;2023-11-22T01:39:53;-3.40;99.90
11446;DHT22;5779;64.178;15.432;2023-11-22T01:42:40;-3.40;99.90
11446;DHT22;5779;64.178;15.432;2023-11-22T01:45:27;-3.40;99.90
11446;DHT22;5779;64.178;15.432;2023-11-22T01:48:15;-3.30;99.90
11446;DHT22;5779;64.178;15.432;2023-11-22T01:51:02;-3.30;99.90
11446;DHT22;5779;64.178;15.432;2023-11-22T01:53:51;-3.30;99.90
11446;DHT22;5779;64.178;15.432;2023-11-22T01:56:41;-3.30;99.90
11446;DHT22;5779;64.178;15.432;2023-11-22T01:59:29;-3.30;99.90
11446;DHT22;5779;64.178;15.432;2023-11-22T02:02:17;-3.40;99.90
11446;DHT22;5779;64.178;15.432;2023-11-22T02:05:05;-3.50;99.90
11446;DHT22;5779;64.178;15.432;2023-11-22T02:07:52;-3.30;99.90
11446;DHT22;5779;64.178;15.432;2023-11-22T02:10:40;-3.20;99.90
11446;DHT22;5779;64.178;15.432;2023-11-22T02:13:28;-3.00;99.90
11446;DHT22;5779;64.178;15.432;2023-11-22T02:16:15;-3.20;99.90
11446;DHT22;5779;64.178;15.432;2023-11-22T02:19:04;-3.30;99.90
11446;DHT22;5779;64.178;15.432;2023-11-22T02:21:52;-3.30;99.90
11446;DHT22;5779;64.178;15.432;2023-11-22T02:24:40;-3.20;99.90
11446;DHT22;5779;64.178;15.432;2023-11-22T02:27:27;-3.30;99.90
11446;DHT22;5779;64.178;15.432;2023-11-22T02:30:14;-3.30;99.90
11446;DHT22;5779;64.178;15.432;2023-11-22T02:33:02;-3.30;99.90
11446;DHT22;5779;64.178;15.432;2023-11-22T02:35:50;-3.30;99.90
11446;DHT22;5779;64.178;15.432;2023-11-22T02:38:37;-3.20;99.90
11446;DHT22;5779;64.178;15.432;2023-11-22T02:41:27;-3.30;99.90
11446;DHT22;5779;64.178;15.432;2023-11-22T02:44:14;-3.30;99.90
11446;DHT22;5779;64.178;15.432;2023-11-22T02:47:02;-3.30;99.90
11446;DHT22;5779;64.178;15.432;2023-11-22T02:49:49;-3.10;99.90
11446;DHT22;5779;64.178;15.432;2023-11-22T02:52:36;-3.20;99.90
11446;DHT22;5779;64.178;15.432;2023-11-22T02:55:23;-3.10;99.90
11446;DHT22;5779;64.178;15.432;2023-11-22T02:58:11;-3.00;99.90
11446;DHT22;5779;64.178;15.432;2023-11-22T03:00:59;-3.00;99.90
11446;DHT22;5779;64.178;15.432;2023-11-22T03:03:45;-3.20;99.90
11446;DHT22;5779;64.178;15.432;2023-11-22T03:06:33;-3.40;99.90
11446;DHT22;5779;64.178;15.432;2023-11-22T03:09:19;-3.30;99.90
11446;DHT22;5779;64.178;15.432;2023-11-22T03:12:08;-3.30;99.90
11446;DHT22;5779;64.178;15.432;2023-11-22T03:14:58;-3.10;99.90
11446;DHT22;5779;64.178;15.432;2023-11-22T03:17:47;-3.10;99.90
11446;DHT22;5779;64.178;15.432;2023-11-22T03:20:35;-3.10;99.90
11446;DHT22;5779;64.178;15.432;2023-11-22T03:23:22;-3.00;99.90
11446;DHT22;5779;64.178;15.432;2023-11-22T03:26:10;-3.00;99.90
11446;DHT22;5779;64.178;15.432;2023-11-22T03:28:57;-3.00;99.90
11446;DHT22;5779;64.178;15.432;2023-11-22T03:31:45;-2.90;99.90
11446;DHT22;5779;64.178;15.432;2023-11-22T03:34:32;-3.10;99.90
11446;DHT22;5779;64.178;15.432;2023-11-22T03:37:19;-3.10;99.90
11446;DHT22;5779;64.178;15.432;2023-11-22T03:40:07;-3.00;99.90
11446;DHT22;5779;64.178;15.432;2023-11-22T03:42:54;-3.10;99.90
11446;DHT22;5779;64.178;15.432;2023-11-22T03:45:41;-3.10;99.90
11446;DHT22;5779;64.178;15.432;2023-11-22T03:48:29;-3.00;99.90
11446;DHT22;5779;64.178;15.432;2023-11-22T03:51:16;-3.10;99.90
11446;DHT22;5779;64.178;15.432;2023-11-22T03:54:04;-3.20;99.90
11446;DHT22;5779;64.178;15.432;2023-11-22T03:56:51;-3.00;99.90
11446;DHT22;5779;64.178;15.432;2023-11-22T03:59:41;-3.10;99.90
11446;DHT22;5779;64.178;15.432;2023-11-22T04:02:28;-3.40;99.90
11446;DHT22;5779;64.178;15.432;2023-11-22T04:05:16;-3.50;99.90
11446;DHT22;5779;64.178;15.432;2023-11-22T04:08:05;-3.40;99.90
11446;DHT22;5779;64.178;15.432;2023-11-22T04:10:53;-3.30;99.90
11446;DHT22;5779;64.178;15.432;2023-11-22T04:13:40;-3.40;99.90
11446;DHT22;5779;64.178;15.432;2023-11-22T04:16:27;-3.60;99.90
11446;DHT22;5779;64.178;15.432;2023-11-22T04:19:14;-3.50;99.90
11446;DHT22;5779;64.178;15.432;2023-11-22T04:22:03;-3.50;99.90
11446;DHT22;5779;64.178;15.432;2023-11-22T04:24:50;-3.50;99.90
11446;DHT22;5779;64.178;15.432;2023-11-22T04:27:36;-3.50;99.90
11446;DHT22;5779;64.178;15.432;2023-11-22T04:30:23;-3.50;99.90
11446;DHT22;5779;64.178;15.432;2023-11-22T04:33:10;-3.50;99.90
11446;DHT22;5779;64.178;15.432;2023-11-22T04:35:57;-3.60;99.90
11446;DHT22;5779;64.178;15.432;2023-11-22T04:38:45;-3.40;99.90
11446;DHT22;5779;64.178;15.432;2023-11-22T04:41:32;-3.30;99.90
11446;DHT22;5779;64.178;15.432;2023-11-22T04:44:19;-3.20;99.90
11446;DHT22;5779;64.178;15.432;2023-11-22T04:47:06;-3.20;99.90
11446;DHT22;5779;64.178;15.432;2023-11-22T04:49:53;-3.20;99.90
11446;DHT22;5779;64.178;15.432;2023-11-22T04:52:40;-3.20;99.90
11446;DHT22;5779;64.178;15.432;2023-11-22T04:55:29;-3.30;99.90
11446;DHT22;5779;64.178;15.432;2023-11-22T04:58:15;-3.30;99.90
11446;DHT22;5779;64.178;15.432;2023-11-22T05:01:02;-3.40;99.90
11446;DHT22;5779;64.178;15.432;2023-11-22T05:03:50;-3.30;99.90
11446;DHT22;5779;64.178;15.432;2023-11-22T05:06:36;-3.40;99.90
11446;DHT22;5779;64.178;15.432;2023-11-22T05:09:23;-3.40;99.90
11446;DHT22;5779;64.178;15.432;2023-11-22T05:12:12;-3.30;99.90
11446;DHT22;5779;64.178;15.432;2023-11-22T05:14:59;-3.30;99.90
11446;DHT22;5779;64.178;15.432;2023-11-22T05:17:46;-3.20;99.90
11446;DHT22;5779;64.178;15.432;2023-11-22T05:20:33;-3.10;99.90
11446;DHT22;5779;64.178;15.432;2023-11-22T05:23:20;-3.10;99.90
11446;DHT22;5779;64.178;15.432;2023-11-22T05:26:07;-3.20;99.90
11446;DHT22;5779;64.178;15.432;2023-11-22T05:28:57;-3.20;99.90
11446;DHT22;5779;64.178;15.432;2023-11-22T05:31:45;-3.00;99.90
11446;DHT22;5779;64.178;15.432;2023-11-22T05:34:32;-3.00;99.90
11446;DHT22;5779;64.178;15.432;2023-11-22T05:37:19;-3.10;99.90
11446;DHT22;5779;64.178;15.432;2023-11-22T05:40:07;-3.10;99.90
11446;DHT22;5779;64.178;15.432;2023-11-22T05:42:55;-3.00;99.90
11446;DHT22;5779;64.178;15.432;2023-11-22T05:45:44;-2.90;99.90
11446;DHT22;5779;64.178;15.432;2023-11-22T05:48:34;-2.90;99.90
11446;DHT22;5779;64.178;15.432;2023-11-22T05:51:21;-3.10;99.90
11446;DHT22;5779;64.178;15.432;2023-11-22T05:54:08;-3.20;99.90
11446;DHT22;5779;64.178;15.432;2023-11-22T05:56:57;-3.10;99.90
11446;DHT22;5779;64.178;15.432;2023-11-22T05:59:44;-3.00;99.90
11446;DHT22;5779;64.178;15.432;2023-11-22T06:02:33;-2.90;99.90
11446;DHT22;5779;64.178;15.432;2023-11-22T06:05:20;-3.00;99.90
11446;DHT22;5779;64.178;15.432;2023-11-22T06:08:07;-3.00;99.90
11446;DHT22;5779;64.178;15.432;2023-11-22T06:10:55;-3.00;99.90
11446;DHT22;5779;64.178;15.432;2023-11-22T06:13:43;-2.90;99.90
11446;DHT22;5779;64.178;15.432;2023-11-22T06:16:32;-2.80;99.90
11446;DHT22;5779;64.178;15.432;2023-11-22T06:19:21;-3.00;99.90
11446;DHT22;5779;64.178;15.432;2023-11-22T06:22:08;-3.00;99.90
11446;DHT22;5779;64.178;15.432;2023-11-22T06:24:55;-3.10;99.90
11446;DHT22;5779;64.178;15.432;2023-11-22T06:27:41;-3.20;99.90
11446;DHT22;5779;64.178;15.432;2023-11-22T06:30:28;-3.10;99.90
11446;DHT22;5779;64.178;15.432;2023-11-22T06:33:15;-3.10;99.90
11446;DHT22;5779;64.178;15.432;2023-11-22T06:36:04;-3.20;99.90
11446;DHT22;5779;64.178;15.432;2023-11-22T06:38:52;-3.20;99.90
11446;DHT22;5779;64.178;15.432;2023-11-22T06:41:39;-3.20;99.90
11446;DHT22;5779;64.178;15.432;2023-11-22T06:44:26;-3.20;99.90
11446;DHT22;5779;64.178;15.432;2023-11-22T06:47:13;-3.20;99.90
11446;DHT22;5779;64.178;15.432;2023-11-22T06:50:00;-3.10;99.90
11446;DHT22;5779;64.178;15.432;2023-11-22T06:52:48;-3.00;99.90
11446;DHT22;5779;64.178;15.432;2023-11-22T06:55:35;-3.10;99.90
11446;DHT22;5779;64.178;15.432;2023-11-22T06:58:24;-3.00;99.90
11446;DHT22;5779;64.178;15.432;2023-11-22T07:01:11;-3.10;99.90
11446;DHT22;5779;64.178;15.432;2023-11-22T07:03:57;-3.00;99.90
11446;DHT22;5779;64.178;15.432;2023-11-22T07:06:44;-3.00;99.90
11446;DHT22;5779;64.178;15.432;2023-11-22T07:09:32;-3.00;99.90
11446;DHT22;5779;64.178;15.432;2023-11-22T07:12:22;-3.10;99.90
11446;DHT22;5779;64.178;15.432;2023-11-22T07:15:09;-3.30;99.90
11446;DHT22;5779;64.178;15.432;2023-11-22T07:17:56;-3.20;99.90
11446;DHT22;5779;64.178;15.432;2023-11-22T07:20:43;-3.30;99.90
11446;DHT22;5779;64.178;15.432;2023-11-22T07:23:30;-3.40;99.90
11446;DHT22;5779;64.178;15.432;2023-11-22T07:26:18;-3.30;99.90
11446;DHT22;5779;64.178;15.432;2023-11-22T07:29:06;-3.30;99.90
11446;DHT22;5779;64.178;15.432;2023-11-22T07:31:52;-3.30;99.90
11446;DHT22;5779;64.178;15.432;2023-11-22T07:34:40;-3.30;99.90
11446;DHT22;5779;64.178;15.432;2023-11-22T07:37:27;-3.30;99.90
11446;DHT22;5779;64.178;15.432;2023-11-22T07:40:14;-3.20;99.90
11446;DHT22;5779;64.178;15.432;2023-11-22T07:43:02;-3.30;99.90
11446;DHT22;5779;64.178;15.432;2023-11-22T07:45:50;-3.30;99.90
11446;DHT22;5779;64.178;15.432;2023-11-22T07:48:37;-3.20;99.90
11446;DHT22;5779;64.178;15.432;2023-11-22T07:51:26;-3.10;99.90
11446;DHT22;5779;64.178;15.432;2023-11-22T07:54:13;-3.10;99.90
11446;DHT22;5779;64.178;15.432;2023-11-22T07:57:01;-3.10;99.90
11446;DHT22;5779;64.178;15.432;2023-11-22T07:59:49;-3.10;99.90
11446;DHT22;5779;64.178;15.432;2023-11-22T08:02:39;-3.20;99.90
11446;DHT22;5779;64.178;15.432;2023-11-22T08:05:28;-3.30;99.90
11446;DHT22;5779;64.178;15.432;2023-11-22T08:08:19;-3.20;99.90
11446;DHT22;5779;64.178;15.432;2023-11-22T08:11:06;-3.10;99.90
11446;DHT22;5779;64.178;15.432;2023-11-22T08:13:59;-3.10;99.90
11446;DHT22;5779;64.178;15.432;2023-11-22T08:16:48;-3.10;99.90
11446;DHT22;5779;64.178;15.432;2023-11-22T08:19:34;-3.10;99.90
11446;DHT22;5779;64.178;15.432;2023-11-22T08:22:24;-3.00;99.90
11446;DHT22;5779;64.178;15.432;2023-11-22T08:25:14;-3.00;99.90
11446;DHT22;5779;64.178;15.432;2023-11-22T08:28:01;-3.10;99.90
11446;DHT22;5779;64.178;15.432;2023-11-22T08:30:47;-3.00;99.90
11446;DHT22;5779;64.178;15.432;2023-11-22T08:33:36;-3.00;99.90
11446;DHT22;5779;64.178;15.432;2023-11-22T08:36:23;-3.10;99.90
11446;DHT22;5779;64.178;15.432;2023-11-22T08:39:10;-3.10;99.90
11446;DHT22;5779;64.178;15.432;2023-11-22T08:41:56;-3.20;99.90
11446;DHT22;5779;64.178;15.432;2023-11-22T08:44:43;-3.20;99.90
11446;DHT22;5779;64.178;15.432;2023-11-22T08:47:30;-3.30;99.90
11446;DHT22;5779;64.178;15.432;2023-11-22T08:50:19;-3.10;99.90
11446;DHT22;5779;64.178;15.432;2023-11-22T08:53:06;-3.00;99.90
11446;DHT22;5779;64.178;15.432;2023-11-22T08:55:53;-3.20;99.90
11446;DHT22;5779;64.178;15.432;2023-11-22T08:58:41;-3.20;99.90
11446;DHT22;5779;64.178;15.432;2023-11-22T09:01:28;-3.20;99.90
11446;DHT22;5779;64.178;15.432;2023-11-22T09:04:15;-3.30;99.90
11446;DHT22;5779;64.178;15.432;2023-11-22T09:07:05;-3.40;99.90
11446;DHT22;5779;64.178;15.432;2023-11-22T09:09:52;-3.50;99.90
11446;DHT22;5779;64.178;15.432;2023-11-22T09:12:39;-3.40;99.90
11446;DHT22;5779;64.178;15.432;2023-11-22T09:15:26;-3.40;99.90
11446;DHT22;5779;64.178;15.432;2023-11-22T09:18:15;-3.40;99.90
11446;DHT22;5779;64.178;15.432;2023-11-22T09:21:01;-3.50;99.90
11446;DHT22;5779;64.178;15.432;2023-11-22T09:23:51;-3.40;99.90
11446;DHT22;5779;64.178;15.432;2023-11-22T09:26:38;-3.40;99.90
11446;DHT22;5779;64.178;15.432;2023-11-22T09:29:25;-3.50;99.90
11446;DHT22;5779;64.178;15.432;2023-11-22T09:32:11;-3.40;99.90
11446;DHT22;5779;64.178;15.432;2023-11-22T09:34:59;-3.40;99.90
11446;DHT22;5779;64.178;15.432;2023-11-22T09:37:46;-3.50;99.90
11446;DHT22;5779;64.178;15.432;2023-11-22T09:40:34;-3.50;99.90
11446;DHT22;5779;64.178;15.432;2023-11-22T09:43:21;-3.40;99.90
11446;DHT22;5779;64.178;15.432;2023-11-22T09:46:11;-3.50;99.90
11446;DHT22;5779;64.178;15.432;2023-11-22T09:49:01;-3.40;99.90
11446;DHT22;5779;64.178;15.432;2023-11-22T09:51:55;-3.50;99.90
11446;DHT22;5779;64.178;15.432;2023-11-22T09:54:44;-3.40;99.90
11446;DHT22;5779;64.178;15.432;2023-11-22T09:57:34;-3.40;99.90
11446;DHT22;5779;64.178;15.432;2023-11-22T10:00:23;-3.40;99.90
11446;DHT22;5779;64.178;15.432;2023-11-22T10:03:14;-3.40;99.90
11446;DHT22;5779;64.178;15.432;2023-11-22T10:06:03;-3.20;99.90
11446;DHT22;5779;64.178;15.432;2023-11-22T10:08:51;-3.00;99.90
11446;DHT22;5779;64.178;15.432;2023-11-22T10:11:38;-2.90;99.90
11446;DHT22;5779;64.178;15.432;2023-11-22T10:14:30;-2.90;99.90
11446;DHT22;5779;64.178;15.432;2023-11-22T10:17:18;-3.00;99.90
11446;DHT22;5779;64.178;15.432;2023-11-22T10:20:07;-3.10;99.90
11446;DHT22;5779;64.178;15.432;2023-11-22T10:22:56;-3.20;99.90
11446;DHT22;5779;64.178;15.432;2023-11-22T10:25:44;-3.10;99.90
11446;DHT22;5779;64.178;15.432;2023-11-22T10:28:32;-3.10;99.90
11446;DHT22;5779;64.178;15.432;2023-11-22T10:31:21;-3.30;99.90
11446;DHT22;5779;64.178;15.432;2023-11-22T10:34:09;-3.20;99.90
11446;DHT22;5779;64.178;15.432;2023-11-22T10:36:56;-3.30;99.90
11446;DHT22;5779;64.178;15.432;2023-11-22T10:39:43;-3.20;99.90
11446;DHT22;5779;64.178;15.432;2023-11-22T10:42:38;-3.20;99.90
11446;DHT22;5779;64.178;15.432;2023-11-22T10:45:29;-3.00;99.90
11446;DHT22;5779;64.178;15.432;2023-11-22T10:48:18;-3.00;99.90
11446;DHT22;5779;64.178;15.432;2023-11-22T10:51:06;-3.10;99.90
11446;DHT22;5779;64.178;15.432;2023-11-22T10:53:59;-2.90;99.90
11446;DHT22;5779;64.178;15.432;2023-11-22T10:56:53;-2.80;99.90
11446;DHT22;5779;64.178;15.432;2023-11-22T10:59:43;-2.90;99.90
11446;DHT22;5779;64.178;15.432;2023-11-22T11:02:40;-3.10;99.90
11446;DHT22;5779;64.178;15.432;2023-11-22T11:05:31;-3.20;99.90
11446;DHT22;5779;64.178;15.432;2023-11-22T11:08:18;-3.10;99.90
11446;DHT22;5779;64.178;15.432;2023-11-22T11:11:06;-3.10;99.90
11446;DHT22;5779;64.178;15.432;2023-11-22T11:13:54;-3.10;99.90
11446;DHT22;5779;64.178;15.432;2023-11-22T11:16:42;-3.10;99.90
11446;DHT22;5779;64.178;15.432;2023-11-22T11:19:33;-2.90;99.90
11446;DHT22;5779;64.178;15.432;2023-11-22T11:22:23;-2.90;99.90
11446;DHT22;5779;64.178;15.432;2023-11-22T11:25:14;-2.90;99.90
11446;DHT22;5779;64.178;15.432;2023-11-22T11:28:03;-3.00;99.90
11446;DHT22;5779;64.178;15.432;2023-11-22T11:30:51;-2.80;99.90
11446;DHT22;5779;64.178;15.432;2023-11-22T11:33:54;-2.70;99.90
11446;DHT22;5779;64.178;15.432;2023-11-22T11:36:41;-2.70;99.90
11446;DHT22;5779;64.178;15.432;2023-11-22T11:39:29;-2.70;99.90
11446;DHT22;5779;64.178;15.432;2023-11-22T11:42:17;-2.50;99.90
11446;DHT22;5779;64.178;15.432;2023-11-22T11:45:05;-2.40;99.90
11446;DHT22;5779;64.178;15.432;2023-11-22T11:47:53;-2.50;99.90
11446;DHT22;5779;64.178;15.432;2023-11-22T11:50:40;-2.40;99.90
11446;DHT22;5779;64.178;15.432;2023-11-22T11:53:28;-2.50;99.90
11446;DHT22;5779;64.178;15.432;2023-11-22T11:56:17;-2.40;99.90
11446;DHT22;5779;64.178;15.432;2023-11-22T11:59:04;-2.50;99.90
11446;DHT22;5779;64.178;15.432;2023-11-22T12:01:53;-2.30;99.90
11446;DHT22;5779;64.178;15.432;2023-11-22T12:04:41;-2.30;99.90
11446;DHT22;5779;64.178;15.432;2023-11-22T12:07:29;-2.20;99.90
11446;DHT22;5779;64.178;15.432;2023-11-22T12:10:16;-2.20;99.90
11446;DHT22;5779;64.178;15.432;2023-11-22T12:13:04;-2.10;99.90
11446;DHT22;5779;64.178;15.432;2023-11-22T12:15:53;-2.00;99.90
11446;DHT22;5779;64.178;15.432;2023-11-22T12:18:41;-1.90;99.90
11446;DHT22;5779;64.178;15.432;2023-11-22T12:21:30;-1.90;99.90
11446;DHT22;5779;64.178;15.432;2023-11-22T12:24:18;-1.80;99.90
11446;DHT22;5779;64.178;15.432;2023-11-22T12:27:05;-1.70;99.90
11446;DHT22;5779;64.178;15.432;2023-11-22T12:29:56;-1.80;99.90
11446;DHT22;5779;64.178;15.432;2023-11-22T12:32:44;-1.80;99.90
11446;DHT22;5779;64.178;15.432;2023-11-22T12:35:31;-1.80;99.90
11446;DHT22;5779;64.178;15.432;2023-11-22T12:38:19;-1.70;99.90
11446;DHT22;5779;64.178;15.432;2023-11-22T12:41:07;-1.60;99.90
11446;DHT22;5779;64.178;15.432;2023-11-22T12:44:03;-1.80;99.90
11446;DHT22;5779;64.178;15.432;2023-11-22T12:46:52;-2.00;99.90
11446;DHT22;5779;64.178;15.432;2023-11-22T12:49:45;-1.90;99.90
11446;DHT22;5779;64.178;15.432;2023-11-22T12:52:32;-1.90;99.90
11446;DHT22;5779;64.178;15.432;2023-11-22T12:55:19;-1.90;99.90
11446;DHT22;5779;64.178;15.432;2023-11-22T12:58:06;-1.90;99.90
11446;DHT22;5779;64.178;15.432;2023-11-22T13:00:54;-1.90;99.90
11446;DHT22;5779;64.178;15.432;2023-11-22T13:03:44;-1.90;99.90
11446;DHT22;5779;64.178;15.432;2023-11-22T13:06:31;-2.00;99.90
11446;DHT22;5779;64.178;15.432;2023-11-22T13:09:18;-2.20;99.90
11446;DHT22;5779;64.178;15.432;2023-11-22T13:12:06;-2.20;99.90
11446;DHT22;5779;64.178;15.432;2023-11-22T13:14:52;-2.00;99.90
11446;DHT22;5779;64.178;15.432;2023-11-22T13:17:39;-1.90;99.90
11446;DHT22;5779;64.178;15.432;2023-11-22T13:20:28;-1.80;99.90
11446;DHT22;5779;64.178;15.432;2023-11-22T13:23:15;-1.80;99.90
11446;DHT22;5779;64.178;15.432;2023-11-22T13:26:02;-1.80;99.90
11446;DHT22;5779;64.178;15.432;2023-11-22T13:28:50;-1.70;99.90
11446;DHT22;5779;64.178;15.432;2023-11-22T13:31:39;-1.70;99.90
11446;DHT22;5779;64.178;15.432;2023-11-22T13:34:26;-1.70;99.90
11446;DHT22;5779;64.178;15.432;2023-11-22T13:37:14;-1.80;99.90
11446;DHT22;5779;64.178;15.432;2023-11-22T13:40:01;-1.90;99.90
11446;DHT22;5779;64.178;15.432;2023-11-22T13:42:49;-2.10;99.90
11446;DHT22;5779;64.178;15.432;2023-11-22T13:45:37;-2.20;99.90
11446;DHT22;5779;64.178;15.432;2023-11-22T13:48:26;-2.10;99.90
11446;DHT22;5779;64.178;15.432;2023-11-22T13:51:13;-2.10;99.90
11446;DHT22;5779;64.178;15.432;2023-11-22T13:54:02;-2.00;99.90
11446;DHT22;5779;64.178;15.432;2023-11-22T13:56:50;-2.00;99.90
11446;DHT22;5779;64.178;15.432;2023-11-22T13:59:37;-2.00;99.90
11446;DHT22;5779;64.178;15.432;2023-11-22T14:02:24;-2.00;99.90
11446;DHT22;5779;64.178;15.432;2023-11-22T14:05:11;-1.90;99.90
11446;DHT22;5779;64.178;15.432;2023-11-22T14:07:58;-2.10;99.90
11446;DHT22;5779;64.178;15.432;2023-11-22T14:10:47;-2.00;99.90
11446;DHT22;5779;64.178;15.432;2023-11-22T14:13:34;-1.90;99.90
11446;DHT22;5779;64.178;15.432;2023-11-22T14:16:20;-1.70;99.90
11446;DHT22;5779;64.178;15.432;2023-11-22T14:19:08;-1.60;99.90
11446;DHT22;5779;64.178;15.432;2023-11-22T14:21:55;-1.40;99.90
11446;DHT22;5779;64.178;15.432;2023-11-22T14:24:42;-1.50;99.90
11446;DHT22;5779;64.178;15.432;2023-11-22T14:27:31;-1.70;99.90
11446;DHT22;5779;64.178;15.432;2023-11-22T14:30:19;-1.60;99.90
11446;DHT22;5779;64.178;15.432;2023-11-22T14:33:06;-1.70;99.90
11446;DHT22;5779;64.178;15.432;2023-11-22T14:35:55;-1.80;99.90
11446;DHT22;5779;64.178;15.432;2023-11-22T14:38:42;-1.80;99.90
11446;DHT22;5779;64.178;15.432;2023-11-22T14:41:29;-2.00;99.90
11446;DHT22;5779;64.178;15.432;2023-11-22T14:44:17;-2.00;99.90
11446;DHT22;5779;64.178;15.432;2023-11-22T14:47:04;-2.10;99.90
11446;DHT22;5779;64.178;15.432;2023-11-22T14:49:58;-2.10;99.90
11446;DHT22;5779;64.178;15.432;2023-11-22T14:52:44;-2.10;99.90
11446;DHT22;5779;64.178;15.432;2023-11-22T14:55:33;-2.10;99.90
11446;DHT22;5779;64.178;15.432;2023-11-22T14:58:26;-2.00;99.90
11446;DHT22;5779;64.178;15.432;2023-11-22T15:01:16;-2.00;99.90
11446;DHT22;5779;64.178;15.432;2023-11-22T15:04:03;-2.00;99.90
11446;DHT22;5779;64.178;15.432;2023-11-22T15:06:50;-2.00;99.90
11446;DHT22;5779;64.178;15.432;2023-11-22T15:09:37;-1.90;99.90
11446;DHT22;5779;64.178;15.432;2023-11-22T15:12:24;-1.80;99.90
11446;DHT22;5779;64.178;15.432;2023-11-22T15:15:15;-1.70;99.90
11446;DHT22;5779;64.178;15.432;2023-11-22T15:18:05;-1.90;99.90
11446;DHT22;5779;64.178;15.432;2023-11-22T15:20:52;-2.10;99.90
11446;DHT22;5779;64.178;15.432;2023-11-22T15:23:39;-2.10;99.90
11446;DHT22;5779;64.178;15.432;2023-11-22T15:26:26;-2.00;99.90
11446;DHT22;5779;64.178;15.432;2023-11-22T15:29:13;-1.90;99.90
11446;DHT22;5779;64.178;15.432;2023-11-22T15:32:02;-2.10;99.90
11446;DHT22;5779;64.178;15.432;2023-11-22T15:34:51;-2.20;99.90
11446;DHT22;5779;64.178;15.432;2023-11-22T15:37:38;-2.20;99.90
11446;DHT22;5779;64.178;15.432;2023-11-22T15:40:26;-2.30;99.90
11446;DHT22;5779;64.178;15.432;2023-11-22T15:43:14;-2.20;99.90
11446;DHT22;5779;64.178;15.432;2023-11-22T15:46:01;-2.10;99.90
11446;DHT22;5779;64.178;15.432;2023-11-22T15:48:49;-2.10;99.90
11446;DHT22;5779;64.178;15.432;2023-11-22T15:51:38;-2.10;99.90
11446;DHT22;5779;64.178;15.432;2023-11-22T15:54:25;-2.20;99.90
11446;DHT22;5779;64.178;15.432;2023-11-22T15:57:12;-2.10;99.90
11446;DHT22;5779;64.178;15.432;2023-11-22T15:59:59;-2.10;99.90
11446;DHT22;5779;64.178;15.432;2023-11-22T16:02:46;-2.10;99.90
11446;DHT22;5779;64.178;15.432;2023-11-22T16:05:33;-2.20;99.90
11446;DHT22;5779;64.178;15.432;2023-11-22T16:08:21;-2.10;99.90
11446;DHT22;5779;64.178;15.432;2023-11-22T16:11:10;-2.20;99.90
11446;DHT22;5779;64.178;15.432;2023-11-22T16:13:56;-2.10;99.90
11446;DHT22;5779;64.178;15.432;2023-11-22T16:16:43;-1.90;99.90
11446;DHT22;5779;64.178;15.432;2023-11-22T16:19:30;-1.80;99.90
11446;DHT22;5779;64.178;15.432;2023-11-22T16:22:17;-1.70;99.90
11446;DHT22;5779;64.178;15.432;2023-11-22T16:25:06;-1.60;99.90
11446;DHT22;5779;64.178;15.432;2023-11-22T16:27:54;-1.60;99.90
11446;DHT22;5779;64.178;15.432;2023-11-22T16:30:42;-1.50;99.90
11446;DHT22;5779;64.178;15.432;2023-11-22T16:33:29;-1.50;99.90
11446;DHT22;5779;64.178;15.432;2023-11-22T16:36:16;-1.50;99.90
11446;DHT22;5779;64.178;15.432;2023-11-22T16:39:06;-1.60;99.90
11446;DHT22;5779;64.178;15.432;2023-11-22T16:41:54;-1.70;99.90
11446;DHT22;5779;64.178;15.432;2023-11-22T16:44:41;-1.80;99.90
11446;DHT22;5779;64.178;15.432;2023-11-22T16:47:28;-1.90;99.90
11446;DHT22;5779;64.178;15.432;2023-11-22T16:50:15;-2.00;99.90
11446;DHT22;5779;64.178;15.432;2023-11-22T16:53:02;-2.00;99.90
11446;DHT22;5779;64.178;15.432;2023-11-22T16:55:50;-2.00;99.90
11446;DHT22;5779;64.178;15.432;2023-11-22T16:58:39;-2.00;99.90
11446;DHT22;5779;64.178;15.432;2023-11-22T17:01:26;-1.90;99.90
11446;DHT22;5779;64.178;15.432;2023-11-22T17:04:13;-1.90;99.90
11446;DHT22;5779;64.178;15.432;2023-11-22T17:07:00;-1.90;99.90
11446;DHT22;5779;64.178;15.432;2023-11-22T17:09:47;-1.90;99.90
11446;DHT22;5779;64.178;15.432;2023-11-22T17:12:34;-1.80;99.90
11446;DHT22;5779;64.178;15.432;2023-11-22T17:15:23;-1.80;99.90
11446;DHT22;5779;64.178;15.432;2023-11-22T17:18:12;-1.80;99.90
11446;DHT22;5779;64.178;15.432;2023-11-22T17:20:59;-1.80;99.90
11446;DHT22;5779;64.178;15.432;2023-11-22T17:23:45;-1.80;99.90
11446;DHT22;5779;64.178;15.432;2023-11-22T17:26:32;-1.80;99.90
11446;DHT22;5779;64.178;15.432;2023-11-22T17:29:20;-1.80;99.90
11446;DHT22;5779;64.178;15.432;2023-11-22T17:32:09;-1.80;99.90
11446;DHT22;5779;64.178;15.432;2023-11-22T17:34:57;-1.70;99.90
11446;DHT22;5779;64.178;15.432;2023-11-22T17:37:44;-1.60;99.90
11446;DHT22;5779;64.178;15.432;2023-11-22T17:40:30;-1.60;99.90